sensor_id;sensor_type;location;lat;lon;timestamp;P1;durP1;ratioP1;P2;durP2;ratioP2
47329;SDS011;33060;50.178;7.570;2023-02-12T00:00:51;29.83;;;19.60;;
47329;SDS011;33060;50.178;7.570;2023-02-12T00:03:18;32.10;;;21.27;;
47329;SDS011;33060;50.178;7.570;2023-02-12T00:05:45;31.70;;;19.67;;
47329;SDS011;33060;50.178;7.570;2023-02-12T00:08:11;29.97;;;19.37;;
47329;SDS011;33060;50.178;7.570;2023-02-12T00:10:40;28.40;;;18.23;;
47329;SDS011;33060;50.178;7.570;2023-02-12T00:13:11;26.67;;;19.07;;
47329;SDS011;33060;50.178;7.570;2023-02-12T00:15:41;29.23;;;18.93;;
47329;SDS011;33060;50.178;7.570;2023-02-12T00:18:08;27.17;;;17.17;;
47329;SDS011;33060;50.178;7.570;2023-02-12T00:20:36;28.20;;;18.00;;
47329;SDS011;33060;50.178;7.570;2023-02-12T00:23:04;27.57;;;18.33;;
47329;SDS011;33060;50.178;7.570;2023-02-12T00:25:31;28.43;;;18.67;;
47329;SDS011;33060;50.178;7.570;2023-02-12T00:27:59;28.60;;;19.00;;
47329;SDS011;33060;50.178;7.570;2023-02-12T00:30:25;30.63;;;20.33;;
47329;SDS011;33060;50.178;7.570;2023-02-12T00:32:53;29.43;;;20.40;;
47329;SDS011;33060;50.178;7.570;2023-02-12T00:35:20;30.00;;;19.20;;
47329;SDS011;33060;50.178;7.570;2023-02-12T00:37:48;28.17;;;18.40;;
47329;SDS011;33060;50.178;7.570;2023-02-12T00:40:15;27.70;;;18.20;;
47329;SDS011;33060;50.178;7.570;2023-02-12T00:42:41;25.00;;;16.20;;
47329;SDS011;33060;50.178;7.570;2023-02-12T00:45:08;26.27;;;18.23;;
47329;SDS011;33060;50.178;7.570;2023-02-12T00:47:35;31.23;;;20.87;;
47329;SDS011;33060;50.178;7.570;2023-02-12T00:50:02;36.00;;;22.20;;
47329;SDS011;33060;50.178;7.570;2023-02-12T00:52:28;35.57;;;22.23;;
47329;SDS011;33060;50.178;7.570;2023-02-12T00:54:55;34.33;;;21.13;;
47329;SDS011;33060;50.178;7.570;2023-02-12T00:57:22;29.80;;;19.03;;
47329;SDS011;33060;50.178;7.570;2023-02-12T00:59:49;25.67;;;17.03;;
47329;SDS011;33060;50.178;7.570;2023-02-12T01:02:16;25.43;;;16.50;;
47329;SDS011;33060;50.178;7.570;2023-02-12T01:04:44;28.13;;;17.73;;
47329;SDS011;33060;50.178;7.570;2023-02-12T01:07:10;25.93;;;17.57;;
47329;SDS011;33060;50.178;7.570;2023-02-12T01:09:37;28.17;;;18.07;;
47329;SDS011;33060;50.178;7.570;2023-02-12T01:12:04;30.00;;;18.20;;
47329;SDS011;33060;50.178;7.570;2023-02-12T01:14:31;30.70;;;20.57;;
47329;SDS011;33060;50.178;7.570;2023-02-12T01:16:58;34.37;;;21.57;;
47329;SDS011;33060;50.178;7.570;2023-02-12T01:19:24;33.40;;;19.70;;
47329;SDS011;33060;50.178;7.570;2023-02-12T01:21:51;25.93;;;17.87;;
47329;SDS011;33060;50.178;7.570;2023-02-12T01:24:18;29.37;;;17.37;;
47329;SDS011;33060;50.178;7.570;2023-02-12T01:26:44;26.33;;;17.23;;
47329;SDS011;33060;50.178;7.570;2023-02-12T01:29:11;29.70;;;17.93;;
47329;SDS011;33060;50.178;7.570;2023-02-12T01:31:38;25.87;;;17.00;;
47329;SDS011;33060;50.178;7.570;2023-02-12T01:34:05;26.70;;;16.77;;
47329;SDS011;33060;50.178;7.570;2023-02-12T01:36:32;28.90;;;18.33;;
47329;SDS011;33060;50.178;7.570;2023-02-12T01:39:00;29.03;;;18.33;;
47329;SDS011;33060;50.178;7.570;2023-02-12T01:41:29;28.20;;;18.03;;
47329;SDS011;33060;50.178;7.570;2023-02-12T01:44:05;26.33;;;17.37;;
47329;SDS011;33060;50.178;7.570;2023-02-12T01:46:47;30.03;;;18.77;;
47329;SDS011;33060;50.178;7.570;2023-02-12T01:52:08;34.63;;;20.63;;
47329;SDS011;33060;50.178;7.570;2023-02-12T01:54:38;35.27;;;21.93;;
47329;SDS011;33060;50.178;7.570;2023-02-12T01:57:05;28.20;;;18.50;;
47329;SDS011;33060;50.178;7.570;2023-02-12T01:59:35;29.57;;;17.63;;
47329;SDS011;33060;50.178;7.570;2023-02-12T02:02:03;25.47;;;16.13;;
47329;SDS011;33060;50.178;7.570;2023-02-12T02:04:42;25.60;;;16.63;;
47329;SDS011;33060;50.178;7.570;2023-02-12T02:07:13;25.67;;;17.10;;
47329;SDS011;33060;50.178;7.570;2023-02-12T02:09:40;27.90;;;18.30;;
47329;SDS011;33060;50.178;7.570;2023-02-12T02:12:07;26.80;;;17.80;;
47329;SDS011;33060;50.178;7.570;2023-02-12T02:14:57;28.73;;;18.53;;
47329;SDS011;33060;50.178;7.570;2023-02-12T02:23:07;26.53;;;17.57;;
47329;SDS011;33060;50.178;7.570;2023-02-12T02:28:55;26.90;;;18.33;;
47329;SDS011;33060;50.178;7.570;2023-02-12T02:31:25;27.13;;;17.43;;
47329;SDS011;33060;50.178;7.570;2023-02-12T02:34:18;29.30;;;18.47;;
47329;SDS011;33060;50.178;7.570;2023-02-12T02:39:48;29.40;;;19.17;;
47329;SDS011;33060;50.178;7.570;2023-02-12T02:42:23;29.80;;;19.10;;
47329;SDS011;33060;50.178;7.570;2023-02-12T02:47:53;30.10;;;20.33;;
47329;SDS011;33060;50.178;7.570;2023-02-12T02:50:24;30.03;;;19.57;;
47329;SDS011;33060;50.178;7.570;2023-02-12T02:53:05;31.97;;;20.10;;
47329;SDS011;33060;50.178;7.570;2023-02-12T02:55:37;34.60;;;21.37;;
47329;SDS011;33060;50.178;7.570;2023-02-12T02:58:11;33.90;;;20.77;;
47329;SDS011;33060;50.178;7.570;2023-02-12T03:00:43;30.00;;;19.47;;
47329;SDS011;33060;50.178;7.570;2023-02-12T03:03:16;29.40;;;18.57;;
47329;SDS011;33060;50.178;7.570;2023-02-12T03:05:49;27.20;;;18.67;;
47329;SDS011;33060;50.178;7.570;2023-02-12T03:08:24;31.47;;;18.83;;
47329;SDS011;33060;50.178;7.570;2023-02-12T03:11:08;28.00;;;17.87;;
47329;SDS011;33060;50.178;7.570;2023-02-12T03:14:02;31.87;;;19.90;;
47329;SDS011;33060;50.178;7.570;2023-02-12T03:16:33;33.63;;;20.87;;
47329;SDS011;33060;50.178;7.570;2023-02-12T03:19:07;31.77;;;19.57;;
47329;SDS011;33060;50.178;7.570;2023-02-12T03:21:43;32.70;;;18.87;;
47329;SDS011;33060;50.178;7.570;2023-02-12T03:24:17;29.80;;;18.47;;
47329;SDS011;33060;50.178;7.570;2023-02-12T03:29:27;27.40;;;17.47;;
47329;SDS011;33060;50.178;7.570;2023-02-12T03:32:03;27.43;;;17.87;;
47329;SDS011;33060;50.178;7.570;2023-02-12T03:34:54;29.47;;;18.70;;
47329;SDS011;33060;50.178;7.570;2023-02-12T03:38:08;29.33;;;19.00;;
47329;SDS011;33060;50.178;7.570;2023-02-12T03:40:44;28.90;;;18.17;;
47329;SDS011;33060;50.178;7.570;2023-02-12T03:43:24;33.13;;;19.00;;
47329;SDS011;33060;50.178;7.570;2023-02-12T03:46:03;29.23;;;19.13;;
47329;SDS011;33060;50.178;7.570;2023-02-12T03:48:42;31.17;;;19.67;;
47329;SDS011;33060;50.178;7.570;2023-02-12T03:51:22;41.13;;;23.40;;
47329;SDS011;33060;50.178;7.570;2023-02-12T03:53:57;40.93;;;24.17;;
47329;SDS011;33060;50.178;7.570;2023-02-12T03:59:20;30.03;;;19.40;;
47329;SDS011;33060;50.178;7.570;2023-02-12T04:01:49;27.00;;;18.23;;
47329;SDS011;33060;50.178;7.570;2023-02-12T04:04:18;40.33;;;20.80;;
47329;SDS011;33060;50.178;7.570;2023-02-12T04:06:46;30.37;;;18.80;;
47329;SDS011;33060;50.178;7.570;2023-02-12T04:09:15;31.10;;;19.10;;
47329;SDS011;33060;50.178;7.570;2023-02-12T04:22:54;66.27;;;26.47;;
47329;SDS011;33060;50.178;7.570;2023-02-12T04:30:56;45.13;;;21.63;;
47329;SDS011;33060;50.178;7.570;2023-02-12T04:33:27;62.20;;;26.33;;
47329;SDS011;33060;50.178;7.570;2023-02-12T04:36:13;59.13;;;25.30;;
47329;SDS011;33060;50.178;7.570;2023-02-12T04:38:45;87.87;;;31.33;;
47329;SDS011;33060;50.178;7.570;2023-02-12T04:41:16;75.67;;;30.10;;
47329;SDS011;33060;50.178;7.570;2023-02-12T04:43:43;52.23;;;25.60;;
47329;SDS011;33060;50.178;7.570;2023-02-12T04:46:10;43.93;;;21.40;;
47329;SDS011;33060;50.178;7.570;2023-02-12T04:48:41;39.93;;;19.13;;
47329;SDS011;33060;50.178;7.570;2023-02-12T04:51:17;35.87;;;19.37;;
47329;SDS011;33060;50.178;7.570;2023-02-12T04:53:43;41.60;;;19.53;;
47329;SDS011;33060;50.178;7.570;2023-02-12T04:56:10;44.57;;;20.70;;
47329;SDS011;33060;50.178;7.570;2023-02-12T04:58:39;38.03;;;19.13;;
47329;SDS011;33060;50.178;7.570;2023-02-12T05:01:06;45.03;;;21.87;;
47329;SDS011;33060;50.178;7.570;2023-02-12T05:03:34;51.93;;;21.90;;
47329;SDS011;33060;50.178;7.570;2023-02-12T05:06:03;43.70;;;19.93;;
47329;SDS011;33060;50.178;7.570;2023-02-12T05:08:30;49.40;;;22.80;;
47329;SDS011;33060;50.178;7.570;2023-02-12T05:11:01;57.73;;;25.17;;
47329;SDS011;33060;50.178;7.570;2023-02-12T05:13:29;64.40;;;26.53;;
47329;SDS011;33060;50.178;7.570;2023-02-12T05:15:56;75.43;;;30.33;;
47329;SDS011;33060;50.178;7.570;2023-02-12T05:18:23;71.87;;;28.53;;
47329;SDS011;33060;50.178;7.570;2023-02-12T05:20:59;75.93;;;27.67;;
47329;SDS011;33060;50.178;7.570;2023-02-12T05:23:28;64.87;;;28.37;;
47329;SDS011;33060;50.178;7.570;2023-02-12T05:25:57;65.93;;;27.23;;
47329;SDS011;33060;50.178;7.570;2023-02-12T05:28:25;63.93;;;25.37;;
47329;SDS011;33060;50.178;7.570;2023-02-12T05:30:52;67.47;;;27.73;;
47329;SDS011;33060;50.178;7.570;2023-02-12T05:33:18;74.30;;;30.60;;
47329;SDS011;33060;50.178;7.570;2023-02-12T05:35:45;78.40;;;29.33;;
47329;SDS011;33060;50.178;7.570;2023-02-12T05:38:12;79.87;;;31.67;;
47329;SDS011;33060;50.178;7.570;2023-02-12T05:40:38;73.77;;;30.70;;
47329;SDS011;33060;50.178;7.570;2023-02-12T05:43:05;75.93;;;29.43;;
47329;SDS011;33060;50.178;7.570;2023-02-12T05:45:32;94.40;;;34.27;;
47329;SDS011;33060;50.178;7.570;2023-02-12T05:47:58;86.70;;;33.33;;
47329;SDS011;33060;50.178;7.570;2023-02-12T05:50:25;81.07;;;31.67;;
47329;SDS011;33060;50.178;7.570;2023-02-12T05:52:59;55.30;;;24.00;;
47329;SDS011;33060;50.178;7.570;2023-02-12T05:55:26;47.60;;;21.80;;
47329;SDS011;33060;50.178;7.570;2023-02-12T05:57:53;55.03;;;23.43;;
47329;SDS011;33060;50.178;7.570;2023-02-12T06:00:20;54.23;;;23.87;;
47329;SDS011;33060;50.178;7.570;2023-02-12T06:02:47;51.20;;;22.80;;
47329;SDS011;33060;50.178;7.570;2023-02-12T06:05:13;54.10;;;25.13;;
47329;SDS011;33060;50.178;7.570;2023-02-12T06:07:40;58.20;;;26.90;;
47329;SDS011;33060;50.178;7.570;2023-02-12T06:10:07;56.57;;;24.97;;
47329;SDS011;33060;50.178;7.570;2023-02-12T06:12:34;61.03;;;25.50;;
47329;SDS011;33060;50.178;7.570;2023-02-12T06:15:00;68.17;;;27.67;;
47329;SDS011;33060;50.178;7.570;2023-02-12T06:17:27;60.27;;;27.60;;
47329;SDS011;33060;50.178;7.570;2023-02-12T06:19:53;69.70;;;28.63;;
47329;SDS011;33060;50.178;7.570;2023-02-12T06:22:20;65.00;;;27.53;;
47329;SDS011;33060;50.178;7.570;2023-02-12T06:24:47;68.07;;;27.57;;
47329;SDS011;33060;50.178;7.570;2023-02-12T06:27:13;55.27;;;23.60;;
47329;SDS011;33060;50.178;7.570;2023-02-12T06:29:40;61.97;;;25.27;;
47329;SDS011;33060;50.178;7.570;2023-02-12T06:32:07;53.90;;;25.40;;
47329;SDS011;33060;50.178;7.570;2023-02-12T06:34:33;56.03;;;24.40;;
47329;SDS011;33060;50.178;7.570;2023-02-12T06:37:00;50.70;;;24.13;;
47329;SDS011;33060;50.178;7.570;2023-02-12T06:39:27;54.40;;;24.17;;
47329;SDS011;33060;50.178;7.570;2023-02-12T06:41:53;54.70;;;26.23;;
47329;SDS011;33060;50.178;7.570;2023-02-12T06:44:20;55.13;;;25.20;;
47329;SDS011;33060;50.178;7.570;2023-02-12T06:46:47;57.20;;;24.77;;
47329;SDS011;33060;50.178;7.570;2023-02-12T06:49:13;63.07;;;27.20;;
47329;SDS011;33060;50.178;7.570;2023-02-12T06:51:41;61.93;;;24.90;;
47329;SDS011;33060;50.178;7.570;2023-02-12T06:54:15;57.07;;;25.23;;
47329;SDS011;33060;50.178;7.570;2023-02-12T06:56:43;57.20;;;23.40;;
47329;SDS011;33060;50.178;7.570;2023-02-12T06:59:12;49.17;;;22.57;;
47329;SDS011;33060;50.178;7.570;2023-02-12T07:01:40;52.73;;;24.73;;
47329;SDS011;33060;50.178;7.570;2023-02-12T07:04:07;50.47;;;24.23;;
47329;SDS011;33060;50.178;7.570;2023-02-12T07:06:34;55.27;;;26.07;;
47329;SDS011;33060;50.178;7.570;2023-02-12T07:09:02;48.97;;;22.57;;
47329;SDS011;33060;50.178;7.570;2023-02-12T07:11:31;51.67;;;24.87;;
47329;SDS011;33060;50.178;7.570;2023-02-12T07:14:03;53.70;;;27.20;;
47329;SDS011;33060;50.178;7.570;2023-02-12T07:16:29;55.80;;;27.20;;
47329;SDS011;33060;50.178;7.570;2023-02-12T07:18:56;57.03;;;26.93;;
47329;SDS011;33060;50.178;7.570;2023-02-12T07:21:23;60.70;;;27.17;;
47329;SDS011;33060;50.178;7.570;2023-02-12T07:23:50;57.97;;;27.43;;
47329;SDS011;33060;50.178;7.570;2023-02-12T07:26:18;57.73;;;27.93;;
47329;SDS011;33060;50.178;7.570;2023-02-12T07:28:46;58.37;;;30.13;;
47329;SDS011;33060;50.178;7.570;2023-02-12T07:31:15;52.97;;;28.13;;
47329;SDS011;33060;50.178;7.570;2023-02-12T07:33:46;44.33;;;24.20;;
47329;SDS011;33060;50.178;7.570;2023-02-12T07:36:15;45.80;;;23.23;;
47329;SDS011;33060;50.178;7.570;2023-02-12T07:38:43;45.13;;;23.23;;
47329;SDS011;33060;50.178;7.570;2023-02-12T07:41:12;44.47;;;23.20;;
47329;SDS011;33060;50.178;7.570;2023-02-12T07:43:51;46.43;;;23.23;;
47329;SDS011;33060;50.178;7.570;2023-02-12T07:46:21;44.17;;;23.33;;
47329;SDS011;33060;50.178;7.570;2023-02-12T07:48:58;43.80;;;23.53;;
47329;SDS011;33060;50.178;7.570;2023-02-12T07:51:27;43.87;;;24.83;;
47329;SDS011;33060;50.178;7.570;2023-02-12T07:53:54;44.13;;;23.63;;
47329;SDS011;33060;50.178;7.570;2023-02-12T07:56:23;40.93;;;23.27;;
47329;SDS011;33060;50.178;7.570;2023-02-12T07:58:55;43.40;;;23.10;;
47329;SDS011;33060;50.178;7.570;2023-02-12T08:01:26;44.93;;;23.67;;
47329;SDS011;33060;50.178;7.570;2023-02-12T08:03:57;43.83;;;23.50;;
47329;SDS011;33060;50.178;7.570;2023-02-12T08:06:26;45.80;;;24.83;;
47329;SDS011;33060;50.178;7.570;2023-02-12T08:08:55;41.20;;;23.00;;
47329;SDS011;33060;50.178;7.570;2023-02-12T08:11:25;43.47;;;22.83;;
47329;SDS011;33060;50.178;7.570;2023-02-12T08:13:53;46.23;;;24.27;;
47329;SDS011;33060;50.178;7.570;2023-02-12T08:16:22;44.53;;;23.17;;
47329;SDS011;33060;50.178;7.570;2023-02-12T08:18:49;44.03;;;24.43;;
47329;SDS011;33060;50.178;7.570;2023-02-12T08:21:21;43.47;;;23.33;;
47329;SDS011;33060;50.178;7.570;2023-02-12T08:23:50;44.30;;;24.07;;
47329;SDS011;33060;50.178;7.570;2023-02-12T08:26:37;41.37;;;22.50;;
47329;SDS011;33060;50.178;7.570;2023-02-12T08:29:06;39.13;;;21.03;;
47329;SDS011;33060;50.178;7.570;2023-02-12T08:31:35;43.03;;;23.57;;
47329;SDS011;33060;50.178;7.570;2023-02-12T08:34:04;42.23;;;22.80;;
47329;SDS011;33060;50.178;7.570;2023-02-12T08:36:37;38.83;;;22.90;;
47329;SDS011;33060;50.178;7.570;2023-02-12T08:39:05;41.67;;;22.87;;
47329;SDS011;33060;50.178;7.570;2023-02-12T08:41:33;40.40;;;22.00;;
47329;SDS011;33060;50.178;7.570;2023-02-12T08:44:01;39.47;;;21.80;;
47329;SDS011;33060;50.178;7.570;2023-02-12T08:46:31;39.20;;;21.77;;
47329;SDS011;33060;50.178;7.570;2023-02-12T08:49:03;38.87;;;22.03;;
47329;SDS011;33060;50.178;7.570;2023-02-12T08:51:32;43.93;;;22.87;;
47329;SDS011;33060;50.178;7.570;2023-02-12T08:54:02;37.87;;;20.90;;
47329;SDS011;33060;50.178;7.570;2023-02-12T08:56:31;42.00;;;21.80;;
47329;SDS011;33060;50.178;7.570;2023-02-12T08:58:59;39.40;;;22.20;;
47329;SDS011;33060;50.178;7.570;2023-02-12T09:01:28;42.90;;;22.70;;
47329;SDS011;33060;50.178;7.570;2023-02-12T09:03:58;39.07;;;22.80;;
47329;SDS011;33060;50.178;7.570;2023-02-12T09:06:26;38.53;;;22.07;;
47329;SDS011;33060;50.178;7.570;2023-02-12T09:08:53;42.20;;;22.63;;
47329;SDS011;33060;50.178;7.570;2023-02-12T09:11:22;36.20;;;21.03;;
47329;SDS011;33060;50.178;7.570;2023-02-12T09:13:59;33.70;;;20.37;;
47329;SDS011;33060;50.178;7.570;2023-02-12T09:16:28;36.13;;;20.83;;
47329;SDS011;33060;50.178;7.570;2023-02-12T09:18:56;33.93;;;20.20;;
47329;SDS011;33060;50.178;7.570;2023-02-12T09:21:23;36.17;;;21.50;;
47329;SDS011;33060;50.178;7.570;2023-02-12T09:23:50;38.57;;;20.03;;
47329;SDS011;33060;50.178;7.570;2023-02-12T09:26:18;36.13;;;20.83;;
47329;SDS011;33060;50.178;7.570;2023-02-12T09:28:47;34.63;;;21.23;;
47329;SDS011;33060;50.178;7.570;2023-02-12T09:31:17;32.83;;;19.98;;
47329;SDS011;33060;50.178;7.570;2023-02-12T09:33:56;32.85;;;19.75;;
47329;SDS011;33060;50.178;7.570;2023-02-12T09:36:25;32.23;;;19.30;;
47329;SDS011;33060;50.178;7.570;2023-02-12T09:38:51;34.17;;;20.92;;
47329;SDS011;33060;50.178;7.570;2023-02-12T09:44:39;36.13;;;21.80;;
47329;SDS011;33060;50.178;7.570;2023-02-12T09:52:41;33.40;;;19.00;;
47329;SDS011;33060;50.178;7.570;2023-02-12T09:55:13;28.90;;;18.00;;
47329;SDS011;33060;50.178;7.570;2023-02-12T09:57:41;34.93;;;20.40;;
47329;SDS011;33060;50.178;7.570;2023-02-12T10:00:12;34.40;;;19.77;;
47329;SDS011;33060;50.178;7.570;2023-02-12T10:02:41;40.10;;;22.37;;
47329;SDS011;33060;50.178;7.570;2023-02-12T10:05:28;35.90;;;21.00;;
47329;SDS011;33060;50.178;7.570;2023-02-12T10:19:46;29.20;;;17.97;;
47329;SDS011;33060;50.178;7.570;2023-02-12T10:27:49;33.33;;;18.37;;
47329;SDS011;33060;50.178;7.570;2023-02-12T10:30:18;32.03;;;18.77;;
47329;SDS011;33060;50.178;7.570;2023-02-12T10:32:51;32.80;;;19.52;;
47329;SDS011;33060;50.178;7.570;2023-02-12T10:35:24;36.42;;;20.30;;
47329;SDS011;33060;50.178;7.570;2023-02-12T10:37:56;34.08;;;19.35;;
47329;SDS011;33060;50.178;7.570;2023-02-12T10:40:26;35.70;;;20.45;;
47329;SDS011;33060;50.178;7.570;2023-02-12T10:42:55;31.83;;;18.80;;
47329;SDS011;33060;50.178;7.570;2023-02-12T10:45:24;27.40;;;17.40;;
47329;SDS011;33060;50.178;7.570;2023-02-12T10:47:53;28.17;;;16.58;;
47329;SDS011;33060;50.178;7.570;2023-02-12T10:53:15;26.50;;;15.15;;
47329;SDS011;33060;50.178;7.570;2023-02-12T10:55:46;27.20;;;16.13;;
47329;SDS011;33060;50.178;7.570;2023-02-12T10:58:17;28.27;;;17.02;;
47329;SDS011;33060;50.178;7.570;2023-02-12T11:00:54;23.40;;;14.77;;
47329;SDS011;33060;50.178;7.570;2023-02-12T11:03:22;23.00;;;14.27;;
47329;SDS011;33060;50.178;7.570;2023-02-12T11:05:54;22.00;;;13.82;;
47329;SDS011;33060;50.178;7.570;2023-02-12T11:10:54;20.40;;;13.32;;
47329;SDS011;33060;50.178;7.570;2023-02-12T11:13:22;19.08;;;12.70;;
47329;SDS011;33060;50.178;7.570;2023-02-12T11:15:51;20.52;;;12.45;;
47329;SDS011;33060;50.178;7.570;2023-02-12T11:18:26;18.55;;;13.50;;
47329;SDS011;33060;50.178;7.570;2023-02-12T11:21:08;19.02;;;12.73;;
47329;SDS011;33060;50.178;7.570;2023-02-12T11:23:40;16.13;;;10.27;;
47329;SDS011;33060;50.178;7.570;2023-02-12T11:28:58;15.45;;;10.00;;
47329;SDS011;33060;50.178;7.570;2023-02-12T11:31:27;13.85;;;9.15;;
47329;SDS011;33060;50.178;7.570;2023-02-12T11:36:39;10.75;;;8.00;;
47329;SDS011;33060;50.178;7.570;2023-02-12T11:44:57;13.63;;;8.93;;
47329;SDS011;33060;50.178;7.570;2023-02-12T11:47:29;16.17;;;10.48;;
47329;SDS011;33060;50.178;7.570;2023-02-12T11:52:30;14.98;;;9.85;;
47329;SDS011;33060;50.178;7.570;2023-02-12T11:54:59;13.63;;;9.45;;
47329;SDS011;33060;50.178;7.570;2023-02-12T12:00:09;14.57;;;9.52;;
47329;SDS011;33060;50.178;7.570;2023-02-12T12:02:49;13.43;;;9.05;;
47329;SDS011;33060;50.178;7.570;2023-02-12T12:05:20;16.25;;;10.48;;
47329;SDS011;33060;50.178;7.570;2023-02-12T12:07:49;16.05;;;10.27;;
47329;SDS011;33060;50.178;7.570;2023-02-12T12:13:10;13.38;;;9.05;;
47329;SDS011;33060;50.178;7.570;2023-02-12T12:15:45;13.02;;;8.75;;
47329;SDS011;33060;50.178;7.570;2023-02-12T12:19:08;15.98;;;10.10;;
47329;SDS011;33060;50.178;7.570;2023-02-12T12:21:56;14.38;;;10.07;;
47329;SDS011;33060;50.178;7.570;2023-02-12T12:24:37;15.10;;;10.50;;
47329;SDS011;33060;50.178;7.570;2023-02-12T12:27:15;16.38;;;10.52;;
47329;SDS011;33060;50.178;7.570;2023-02-12T12:33:03;15.75;;;10.02;;
47329;SDS011;33060;50.178;7.570;2023-02-12T12:35:47;14.13;;;10.05;;
47329;SDS011;33060;50.178;7.570;2023-02-12T12:41:36;10.95;;;7.50;;
47329;SDS011;33060;50.178;7.570;2023-02-12T12:47:06;15.07;;;9.35;;
47329;SDS011;33060;50.178;7.570;2023-02-12T12:58:00;9.98;;;7.30;;
47329;SDS011;33060;50.178;7.570;2023-02-12T13:05:53;7.45;;;5.75;;
47329;SDS011;33060;50.178;7.570;2023-02-12T13:13:40;8.27;;;5.60;;
47329;SDS011;33060;50.178;7.570;2023-02-12T13:16:22;6.90;;;4.93;;
47329;SDS011;33060;50.178;7.570;2023-02-12T13:19:01;5.35;;;3.88;;
47329;SDS011;33060;50.178;7.570;2023-02-12T13:21:39;6.20;;;4.07;;
47329;SDS011;33060;50.178;7.570;2023-02-12T13:29:25;7.88;;;4.93;;
47329;SDS011;33060;50.178;7.570;2023-02-12T13:31:55;7.32;;;5.22;;
47329;SDS011;33060;50.178;7.570;2023-02-12T13:34:26;8.30;;;5.22;;
47329;SDS011;33060;50.178;7.570;2023-02-12T13:36:56;8.20;;;5.13;;
47329;SDS011;33060;50.178;7.570;2023-02-12T13:39:28;7.93;;;5.25;;
47329;SDS011;33060;50.178;7.570;2023-02-12T13:47:17;7.15;;;5.18;;
47329;SDS011;33060;50.178;7.570;2023-02-12T13:55:32;7.25;;;5.30;;
47329;SDS011;33060;50.178;7.570;2023-02-12T14:03:27;9.02;;;6.43;;
47329;SDS011;33060;50.178;7.570;2023-02-12T14:08:50;7.53;;;5.43;;
47329;SDS011;33060;50.178;7.570;2023-02-12T14:11:20;10.68;;;6.20;;
47329;SDS011;33060;50.178;7.570;2023-02-12T14:13:53;7.95;;;6.10;;
47329;SDS011;33060;50.178;7.570;2023-02-12T14:22:00;10.55;;;7.05;;
47329;SDS011;33060;50.178;7.570;2023-02-12T14:27:04;8.32;;;6.00;;
47329;SDS011;33060;50.178;7.570;2023-02-12T14:32:59;9.60;;;6.80;;
47329;SDS011;33060;50.178;7.570;2023-02-12T14:35:39;9.60;;;7.03;;
47329;SDS011;33060;50.178;7.570;2023-02-12T14:40:43;9.63;;;6.85;;
47329;SDS011;33060;50.178;7.570;2023-02-12T14:48:54;8.85;;;6.15;;
47329;SDS011;33060;50.178;7.570;2023-02-12T14:54:13;8.82;;;6.57;;
47329;SDS011;33060;50.178;7.570;2023-02-12T14:56:45;11.07;;;7.03;;
47329;SDS011;33060;50.178;7.570;2023-02-12T14:59:14;9.18;;;6.13;;
47329;SDS011;33060;50.178;7.570;2023-02-12T15:01:45;8.23;;;6.10;;
47329;SDS011;33060;50.178;7.570;2023-02-12T15:04:19;8.70;;;6.35;;
47329;SDS011;33060;50.178;7.570;2023-02-12T15:06:52;6.78;;;4.97;;
47329;SDS011;33060;50.178;7.570;2023-02-12T15:09:28;8.13;;;5.55;;
47329;SDS011;33060;50.178;7.570;2023-02-12T15:12:05;6.43;;;4.70;;
47329;SDS011;33060;50.178;7.570;2023-02-12T15:14:42;6.55;;;4.95;;
47329;SDS011;33060;50.178;7.570;2023-02-12T15:17:18;6.47;;;4.45;;
47329;SDS011;33060;50.178;7.570;2023-02-12T15:19:50;5.47;;;4.15;;
47329;SDS011;33060;50.178;7.570;2023-02-12T15:28:22;6.68;;;5.13;;
47329;SDS011;33060;50.178;7.570;2023-02-12T15:30:55;7.75;;;5.63;;
47329;SDS011;33060;50.178;7.570;2023-02-12T15:33:27;7.78;;;5.47;;
47329;SDS011;33060;50.178;7.570;2023-02-12T15:35:55;10.27;;;6.05;;
47329;SDS011;33060;50.178;7.570;2023-02-12T15:38:36;9.25;;;6.45;;
47329;SDS011;33060;50.178;7.570;2023-02-12T15:41:07;9.85;;;7.10;;
47329;SDS011;33060;50.178;7.570;2023-02-12T15:43:48;9.68;;;6.65;;
47329;SDS011;33060;50.178;7.570;2023-02-12T15:46:15;8.48;;;6.47;;
47329;SDS011;33060;50.178;7.570;2023-02-12T15:48:43;10.73;;;6.43;;
47329;SDS011;33060;50.178;7.570;2023-02-12T15:54:03;10.10;;;7.15;;
47329;SDS011;33060;50.178;7.570;2023-02-12T15:56:32;9.00;;;6.68;;
47329;SDS011;33060;50.178;7.570;2023-02-12T15:59:02;9.77;;;6.88;;
47329;SDS011;33060;50.178;7.570;2023-02-12T16:01:33;10.38;;;7.30;;
47329;SDS011;33060;50.178;7.570;2023-02-12T16:04:04;11.95;;;7.28;;
47329;SDS011;33060;50.178;7.570;2023-02-12T16:06:32;10.43;;;7.40;;
47329;SDS011;33060;50.178;7.570;2023-02-12T16:09:06;10.00;;;6.70;;
47329;SDS011;33060;50.178;7.570;2023-02-12T16:11:38;10.68;;;7.80;;
47329;SDS011;33060;50.178;7.570;2023-02-12T16:14:17;11.48;;;7.88;;
47329;SDS011;33060;50.178;7.570;2023-02-12T16:16:48;10.73;;;7.93;;
47329;SDS011;33060;50.178;7.570;2023-02-12T16:19:19;11.98;;;7.40;;
47329;SDS011;33060;50.178;7.570;2023-02-12T16:24:26;11.27;;;8.23;;
47329;SDS011;33060;50.178;7.570;2023-02-12T16:26:57;11.03;;;7.77;;
47329;SDS011;33060;50.178;7.570;2023-02-12T16:29:30;11.45;;;8.07;;
47329;SDS011;33060;50.178;7.570;2023-02-12T16:32:00;11.85;;;8.50;;
47329;SDS011;33060;50.178;7.570;2023-02-12T16:34:32;11.23;;;7.95;;
47329;SDS011;33060;50.178;7.570;2023-02-12T16:37:02;11.43;;;8.13;;
47329;SDS011;33060;50.178;7.570;2023-02-12T16:42:19;11.50;;;7.78;;
47329;SDS011;33060;50.178;7.570;2023-02-12T16:44:50;12.83;;;8.47;;
47329;SDS011;33060;50.178;7.570;2023-02-12T16:47:20;12.93;;;8.75;;
47329;SDS011;33060;50.178;7.570;2023-02-12T16:49:56;15.93;;;10.27;;
47329;SDS011;33060;50.178;7.570;2023-02-12T16:55:08;16.10;;;11.02;;
47329;SDS011;33060;50.178;7.570;2023-02-12T16:57:39;16.75;;;11.13;;
47329;SDS011;33060;50.178;7.570;2023-02-12T17:00:06;17.80;;;12.23;;
47329;SDS011;33060;50.178;7.570;2023-02-12T17:02:35;18.10;;;12.02;;
47329;SDS011;33060;50.178;7.570;2023-02-12T17:05:02;18.48;;;12.23;;
47329;SDS011;33060;50.178;7.570;2023-02-12T17:07:32;15.75;;;11.40;;
47329;SDS011;33060;50.178;7.570;2023-02-12T17:09:59;17.90;;;12.52;;
47329;SDS011;33060;50.178;7.570;2023-02-12T17:12:26;16.27;;;10.25;;
47329;SDS011;33060;50.178;7.570;2023-02-12T17:14:53;12.80;;;9.80;;
47329;SDS011;33060;50.178;7.570;2023-02-12T17:17:21;14.13;;;10.02;;
47329;SDS011;33060;50.178;7.570;2023-02-12T17:19:48;17.15;;;11.20;;
47329;SDS011;33060;50.178;7.570;2023-02-12T17:22:17;16.77;;;11.33;;
47329;SDS011;33060;50.178;7.570;2023-02-12T17:24:47;18.03;;;12.43;;
47329;SDS011;33060;50.178;7.570;2023-02-12T17:27:17;18.30;;;11.52;;
47329;SDS011;33060;50.178;7.570;2023-02-12T17:29:45;18.83;;;12.70;;
47329;SDS011;33060;50.178;7.570;2023-02-12T17:32:11;17.20;;;11.80;;
47329;SDS011;33060;50.178;7.570;2023-02-12T17:34:38;16.65;;;11.90;;
47329;SDS011;33060;50.178;7.570;2023-02-12T17:37:14;16.83;;;11.60;;
47329;SDS011;33060;50.178;7.570;2023-02-12T17:39:40;17.40;;;11.68;;
47329;SDS011;33060;50.178;7.570;2023-02-12T17:42:07;16.60;;;11.45;;
47329;SDS011;33060;50.178;7.570;2023-02-12T17:44:33;14.20;;;9.87;;
47329;SDS011;33060;50.178;7.570;2023-02-12T17:47:00;17.05;;;11.43;;
47329;SDS011;33060;50.178;7.570;2023-02-12T17:49:27;15.50;;;10.45;;